sensor_id;sensor_type;location;lat;lon;timestamp;P1;durP1;ratioP1;P2;durP2;ratioP2
14256;SDS011;7212;53.254;6.456;2022-09-09T00:04:00;3.60;;;3.30;;
14256;SDS011;7212;53.254;6.456;2022-09-09T00:09:31;3.95;;;3.65;;
14256;SDS011;7212;53.254;6.456;2022-09-09T00:14:40;5.38;;;3.47;;
14256;SDS011;7212;53.254;6.456;2022-09-09T00:23:04;3.30;;;3.00;;
14256;SDS011;7212;53.254;6.456;2022-09-09T00:25:40;3.80;;;3.50;;
14256;SDS011;7212;53.254;6.456;2022-09-09T00:28:23;3.55;;;3.25;;
14256;SDS011;7212;53.254;6.456;2022-09-09T00:30:51;3.72;;;3.42;;
14256;SDS011;7212;53.254;6.456;2022-09-09T00:33:19;3.58;;;3.38;;
14256;SDS011;7212;53.254;6.456;2022-09-09T00:35:48;3.83;;;3.30;;
14256;SDS011;7212;53.254;6.456;2022-09-09T00:43:39;4.80;;;3.45;;
14256;SDS011;7212;53.254;6.456;2022-09-09T00:46:49;3.53;;;3.22;;
14256;SDS011;7212;53.254;6.456;2022-09-09T00:55:12;3.45;;;3.15;;
14256;SDS011;7212;53.254;6.456;2022-09-09T00:57:45;3.42;;;3.22;;
14256;SDS011;7212;53.254;6.456;2022-09-09T01:03:22;3.50;;;3.20;;
14256;SDS011;7212;53.254;6.456;2022-09-09T01:09:13;4.35;;;3.60;;
14256;SDS011;7212;53.254;6.456;2022-09-09T01:12:06;3.72;;;3.42;;
14256;SDS011;7212;53.254;6.456;2022-09-09T01:14:54;5.25;;;3.78;;
14256;SDS011;7212;53.254;6.456;2022-09-09T01:17:32;4.25;;;3.85;;
14256;SDS011;7212;53.254;6.456;2022-09-09T01:20:19;4.93;;;3.90;;
14256;SDS011;7212;53.254;6.456;2022-09-09T01:23:17;3.83;;;3.30;;
14256;SDS011;7212;53.254;6.456;2022-09-09T01:26:11;3.75;;;3.40;;
14256;SDS011;7212;53.254;6.456;2022-09-09T01:28:50;3.75;;;3.47;;
14256;SDS011;7212;53.254;6.456;2022-09-09T01:31:19;3.60;;;3.30;;
14256;SDS011;7212;53.254;6.456;2022-09-09T01:33:47;3.72;;;3.42;;
14256;SDS011;7212;53.254;6.456;2022-09-09T01:36:31;4.50;;;3.75;;
14256;SDS011;7212;53.254;6.456;2022-09-09T01:39:04;3.80;;;3.50;;
14256;SDS011;7212;53.254;6.456;2022-09-09T01:41:29;3.70;;;3.40;;
14256;SDS011;7212;53.254;6.456;2022-09-09T01:43:55;3.40;;;3.20;;
14256;SDS011;7212;53.254;6.456;2022-09-09T01:46:22;4.53;;;3.53;;
14256;SDS011;7212;53.254;6.456;2022-09-09T01:48:49;3.78;;;3.47;;
14256;SDS011;7212;53.254;6.456;2022-09-09T01:51:17;3.58;;;3.28;;
14256;SDS011;7212;53.254;6.456;2022-09-09T01:53:43;3.65;;;3.35;;
14256;SDS011;7212;53.254;6.456;2022-09-09T02:04:22;3.90;;;3.53;;
14256;SDS011;7212;53.254;6.456;2022-09-09T02:07:00;4.22;;;3.50;;
14256;SDS011;7212;53.254;6.456;2022-09-09T02:09:25;3.63;;;3.33;;
14256;SDS011;7212;53.254;6.456;2022-09-09T02:12:05;3.28;;;3.08;;
14256;SDS011;7212;53.254;6.456;2022-09-09T02:14:42;3.75;;;3.45;;
14256;SDS011;7212;53.254;6.456;2022-09-09T02:17:14;3.58;;;3.28;;
14256;SDS011;7212;53.254;6.456;2022-09-09T02:19:45;3.20;;;2.95;;
14256;SDS011;7212;53.254;6.456;2022-09-09T02:22:16;3.58;;;3.35;;
14256;SDS011;7212;53.254;6.456;2022-09-09T02:24:44;3.30;;;3.00;;
14256;SDS011;7212;53.254;6.456;2022-09-09T02:27:11;3.00;;;2.80;;
14256;SDS011;7212;53.254;6.456;2022-09-09T02:29:40;3.60;;;3.30;;
14256;SDS011;7212;53.254;6.456;2022-09-09T02:32:09;3.20;;;3.00;;
14256;SDS011;7212;53.254;6.456;2022-09-09T02:34:47;3.42;;;3.22;;
14256;SDS011;7212;53.254;6.456;2022-09-09T02:37:27;3.42;;;3.13;;
14256;SDS011;7212;53.254;6.456;2022-09-09T02:40:00;3.75;;;3.40;;
14256;SDS011;7212;53.254;6.456;2022-09-09T02:42:27;3.58;;;3.28;;
14256;SDS011;7212;53.254;6.456;2022-09-09T02:44:53;3.75;;;3.42;;
14256;SDS011;7212;53.254;6.456;2022-09-09T02:47:35;3.58;;;3.28;;
14256;SDS011;7212;53.254;6.456;2022-09-09T02:55:16;3.70;;;3.40;;
14256;SDS011;7212;53.254;6.456;2022-09-09T02:57:52;3.83;;;3.53;;
14256;SDS011;7212;53.254;6.456;2022-09-09T03:00:24;3.90;;;3.60;;
14256;SDS011;7212;53.254;6.456;2022-09-09T03:02:51;3.70;;;3.40;;
14256;SDS011;7212;53.254;6.456;2022-09-09T03:05:17;3.80;;;3.40;;
14256;SDS011;7212;53.254;6.456;2022-09-09T03:07:42;3.90;;;3.60;;
14256;SDS011;7212;53.254;6.456;2022-09-09T03:10:08;4.32;;;4.03;;
14256;SDS011;7212;53.254;6.456;2022-09-09T03:12:35;4.43;;;4.07;;
14256;SDS011;7212;53.254;6.456;2022-09-09T03:15:01;3.95;;;3.67;;
14256;SDS011;7212;53.254;6.456;2022-09-09T03:17:26;5.03;;;3.40;;
14256;SDS011;7212;53.254;6.456;2022-09-09T03:19:53;4.10;;;3.80;;
14256;SDS011;7212;53.254;6.456;2022-09-09T03:22:20;4.28;;;3.88;;
14256;SDS011;7212;53.254;6.456;2022-09-09T03:24:46;4.13;;;3.72;;
14256;SDS011;7212;53.254;6.456;2022-09-09T03:27:12;3.90;;;3.60;;
14256;SDS011;7212;53.254;6.456;2022-09-09T03:29:39;4.22;;;3.92;;
14256;SDS011;7212;53.254;6.456;2022-09-09T03:32:05;4.00;;;3.70;;
14256;SDS011;7212;53.254;6.456;2022-09-09T03:34:31;3.70;;;3.40;;
14256;SDS011;7212;53.254;6.456;2022-09-09T03:36:56;3.70;;;3.40;;
14256;SDS011;7212;53.254;6.456;2022-09-09T03:39:22;3.80;;;3.50;;
14256;SDS011;7212;53.254;6.456;2022-09-09T03:41:48;4.18;;;3.88;;
14256;SDS011;7212;53.254;6.456;2022-09-09T03:44:14;3.75;;;3.45;;
14256;SDS011;7212;53.254;6.456;2022-09-09T03:46:39;4.47;;;4.07;;
14256;SDS011;7212;53.254;6.456;2022-09-09T03:49:05;4.30;;;4.00;;
14256;SDS011;7212;53.254;6.456;2022-09-09T03:51:31;4.53;;;3.85;;
14256;SDS011;7212;53.254;6.456;2022-09-09T03:53:59;3.90;;;3.60;;
14256;SDS011;7212;53.254;6.456;2022-09-09T03:56:24;3.80;;;3.50;;
14256;SDS011;7212;53.254;6.456;2022-09-09T03:58:50;4.07;;;3.70;;
14256;SDS011;7212;53.254;6.456;2022-09-09T04:01:16;4.00;;;3.42;;
14256;SDS011;7212;53.254;6.456;2022-09-09T04:03:42;3.78;;;3.45;;
14256;SDS011;7212;53.254;6.456;2022-09-09T04:06:10;4.03;;;3.63;;
14256;SDS011;7212;53.254;6.456;2022-09-09T04:08:38;3.70;;;3.40;;
14256;SDS011;7212;53.254;6.456;2022-09-09T04:11:05;3.75;;;3.13;;
14256;SDS011;7212;53.254;6.456;2022-09-09T04:13:32;3.33;;;3.13;;
14256;SDS011;7212;53.254;6.456;2022-09-09T04:16:02;3.75;;;3.40;;
14256;SDS011;7212;53.254;6.456;2022-09-09T04:18:28;3.47;;;3.17;;
14256;SDS011;7212;53.254;6.456;2022-09-09T04:20:54;3.25;;;3.05;;
14256;SDS011;7212;53.254;6.456;2022-09-09T04:23:24;3.17;;;2.95;;
14256;SDS011;7212;53.254;6.456;2022-09-09T04:25:51;3.65;;;3.10;;
14256;SDS011;7212;53.254;6.456;2022-09-09T04:28:19;3.40;;;3.10;;
14256;SDS011;7212;53.254;6.456;2022-09-09T04:30:45;3.10;;;2.90;;
14256;SDS011;7212;53.254;6.456;2022-09-09T04:33:11;3.38;;;3.17;;
14256;SDS011;7212;53.254;6.456;2022-09-09T04:35:38;2.90;;;2.70;;
14256;SDS011;7212;53.254;6.456;2022-09-09T04:38:04;2.83;;;2.63;;
14256;SDS011;7212;53.254;6.456;2022-09-09T04:40:32;2.85;;;2.65;;
14256;SDS011;7212;53.254;6.456;2022-09-09T04:42:59;3.63;;;3.03;;
14256;SDS011;7212;53.254;6.456;2022-09-09T04:45:25;3.55;;;2.67;;
14256;SDS011;7212;53.254;6.456;2022-09-09T04:47:52;3.25;;;2.40;;
14256;SDS011;7212;53.254;6.456;2022-09-09T04:50:18;3.05;;;2.75;;
14256;SDS011;7212;53.254;6.456;2022-09-09T04:52:44;3.28;;;2.63;;
14256;SDS011;7212;53.254;6.456;2022-09-09T04:55:10;3.10;;;2.50;;
14256;SDS011;7212;53.254;6.456;2022-09-09T04:57:37;3.03;;;2.80;;
14256;SDS011;7212;53.254;6.456;2022-09-09T05:00:04;2.90;;;2.55;;
14256;SDS011;7212;53.254;6.456;2022-09-09T05:02:31;4.68;;;3.13;;
14256;SDS011;7212;53.254;6.456;2022-09-09T05:04:57;2.95;;;2.75;;
14256;SDS011;7212;53.254;6.456;2022-09-09T05:07:23;2.70;;;2.50;;
14256;SDS011;7212;53.254;6.456;2022-09-09T05:09:51;3.05;;;2.75;;
14256;SDS011;7212;53.254;6.456;2022-09-09T05:12:16;3.10;;;2.80;;
14256;SDS011;7212;53.254;6.456;2022-09-09T05:14:43;3.60;;;2.60;;
14256;SDS011;7212;53.254;6.456;2022-09-09T05:17:08;2.70;;;2.50;;
14256;SDS011;7212;53.254;6.456;2022-09-09T05:19:34;2.53;;;2.17;;
14256;SDS011;7212;53.254;6.456;2022-09-09T05:22:00;2.67;;;2.47;;
14256;SDS011;7212;53.254;6.456;2022-09-09T05:24:26;2.42;;;2.30;;
14256;SDS011;7212;53.254;6.456;2022-09-09T05:26:51;2.90;;;2.60;;
14256;SDS011;7212;53.254;6.456;2022-09-09T05:29:17;3.03;;;2.72;;
14256;SDS011;7212;53.254;6.456;2022-09-09T05:31:44;3.80;;;2.58;;
14256;SDS011;7212;53.254;6.456;2022-09-09T05:34:10;3.13;;;2.60;;
14256;SDS011;7212;53.254;6.456;2022-09-09T05:36:36;3.10;;;2.90;;
14256;SDS011;7212;53.254;6.456;2022-09-09T05:39:02;3.22;;;2.92;;
14256;SDS011;7212;53.254;6.456;2022-09-09T05:41:28;3.72;;;2.90;;
14256;SDS011;7212;53.254;6.456;2022-09-09T05:43:54;3.00;;;2.80;;
14256;SDS011;7212;53.254;6.456;2022-09-09T05:46:21;3.00;;;2.70;;
14256;SDS011;7212;53.254;6.456;2022-09-09T05:48:49;3.22;;;2.90;;
14256;SDS011;7212;53.254;6.456;2022-09-09T05:51:17;2.80;;;2.60;;
14256;SDS011;7212;53.254;6.456;2022-09-09T05:53:46;3.05;;;2.85;;
14256;SDS011;7212;53.254;6.456;2022-09-09T05:56:14;3.20;;;2.90;;
14256;SDS011;7212;53.254;6.456;2022-09-09T05:58:41;3.78;;;3.28;;
14256;SDS011;7212;53.254;6.456;2022-09-09T06:01:19;3.90;;;2.90;;
14256;SDS011;7212;53.254;6.456;2022-09-09T06:03:50;3.10;;;2.90;;
14256;SDS011;7212;53.254;6.456;2022-09-09T06:06:18;3.55;;;3.25;;
14256;SDS011;7212;53.254;6.456;2022-09-09T06:08:48;3.67;;;3.22;;
14256;SDS011;7212;53.254;6.456;2022-09-09T06:11:17;3.45;;;3.15;;
14256;SDS011;7212;53.254;6.456;2022-09-09T06:13:55;3.90;;;3.42;;
14256;SDS011;7212;53.254;6.456;2022-09-09T06:16:22;3.60;;;3.38;;
14256;SDS011;7212;53.254;6.456;2022-09-09T06:18:49;3.30;;;3.00;;
14256;SDS011;7212;53.254;6.456;2022-09-09T06:21:19;3.47;;;3.25;;
14256;SDS011;7212;53.254;6.456;2022-09-09T06:23:47;4.07;;;3.40;;
14256;SDS011;7212;53.254;6.456;2022-09-09T06:26:23;4.10;;;3.80;;
14256;SDS011;7212;53.254;6.456;2022-09-09T06:28:58;3.97;;;3.58;;
14256;SDS011;7212;53.254;6.456;2022-09-09T06:31:26;3.88;;;3.58;;
14256;SDS011;7212;53.254;6.456;2022-09-09T06:33:55;3.60;;;3.30;;
14256;SDS011;7212;53.254;6.456;2022-09-09T06:36:23;4.38;;;3.97;;
14256;SDS011;7212;53.254;6.456;2022-09-09T06:38:50;4.10;;;3.80;;
14256;SDS011;7212;53.254;6.456;2022-09-09T06:41:16;4.00;;;3.70;;
14256;SDS011;7212;53.254;6.456;2022-09-09T06:43:47;4.63;;;4.00;;
14256;SDS011;7212;53.254;6.456;2022-09-09T06:46:17;4.10;;;3.70;;
14256;SDS011;7212;53.254;6.456;2022-09-09T06:48:47;4.93;;;4.53;;
14256;SDS011;7212;53.254;6.456;2022-09-09T06:53:44;3.97;;;3.67;;
14256;SDS011;7212;53.254;6.456;2022-09-09T06:58:43;4.40;;;4.00;;
14256;SDS011;7212;53.254;6.456;2022-09-09T07:01:14;3.50;;;3.20;;
14256;SDS011;7212;53.254;6.456;2022-09-09T07:03:41;4.45;;;4.05;;
14256;SDS011;7212;53.254;6.456;2022-09-09T07:06:13;4.22;;;3.83;;
14256;SDS011;7212;53.254;6.456;2022-09-09T07:08:42;4.95;;;4.50;;
14256;SDS011;7212;53.254;6.456;2022-09-09T07:11:08;4.43;;;4.03;;
14256;SDS011;7212;53.254;6.456;2022-09-09T07:13:34;4.43;;;4.03;;
14256;SDS011;7212;53.254;6.456;2022-09-09T07:16:07;4.35;;;3.83;;
14256;SDS011;7212;53.254;6.456;2022-09-09T07:18:37;4.60;;;4.20;;
14256;SDS011;7212;53.254;6.456;2022-09-09T07:21:05;4.32;;;3.95;;
14256;SDS011;7212;53.254;6.456;2022-09-09T07:23:31;4.32;;;3.92;;
14256;SDS011;7212;53.254;6.456;2022-09-09T07:25:57;4.70;;;4.13;;
14256;SDS011;7212;53.254;6.456;2022-09-09T07:28:24;4.05;;;3.75;;
14256;SDS011;7212;53.254;6.456;2022-09-09T07:30:55;3.70;;;3.40;;
14256;SDS011;7212;53.254;6.456;2022-09-09T07:33:25;4.00;;;3.65;;
14256;SDS011;7212;53.254;6.456;2022-09-09T07:35:51;3.67;;;3.38;;
14256;SDS011;7212;53.254;6.456;2022-09-09T07:38:18;4.40;;;4.00;;
14256;SDS011;7212;53.254;6.456;2022-09-09T07:40:45;3.88;;;3.30;;
14256;SDS011;7212;53.254;6.456;2022-09-09T07:43:10;3.72;;;3.42;;
14256;SDS011;7212;53.254;6.456;2022-09-09T07:45:37;3.78;;;3.47;;
14256;SDS011;7212;53.254;6.456;2022-09-09T07:48:03;3.78;;;3.45;;
14256;SDS011;7212;53.254;6.456;2022-09-09T07:50:29;4.57;;;3.50;;
14256;SDS011;7212;53.254;6.456;2022-09-09T07:52:55;3.58;;;3.28;;
14256;SDS011;7212;53.254;6.456;2022-09-09T07:55:21;3.88;;;3.58;;
14256;SDS011;7212;53.254;6.456;2022-09-09T07:57:50;4.43;;;3.83;;
14256;SDS011;7212;53.254;6.456;2022-09-09T08:00:16;3.45;;;3.20;;
14256;SDS011;7212;53.254;6.456;2022-09-09T08:02:43;4.28;;;3.83;;
14256;SDS011;7212;53.254;6.456;2022-09-09T08:05:09;4.00;;;3.67;;
14256;SDS011;7212;53.254;6.456;2022-09-09T08:07:34;3.83;;;3.45;;
14256;SDS011;7212;53.254;6.456;2022-09-09T08:10:00;3.97;;;3.45;;
14256;SDS011;7212;53.254;6.456;2022-09-09T08:12:27;3.92;;;3.58;;
14256;SDS011;7212;53.254;6.456;2022-09-09T08:14:53;3.60;;;3.30;;
14256;SDS011;7212;53.254;6.456;2022-09-09T08:17:19;3.50;;;3.20;;
14256;SDS011;7212;53.254;6.456;2022-09-09T08:19:45;3.63;;;3.20;;
14256;SDS011;7212;53.254;6.456;2022-09-09T08:22:10;3.63;;;3.33;;
14256;SDS011;7212;53.254;6.456;2022-09-09T08:24:36;3.53;;;3.22;;
14256;SDS011;7212;53.254;6.456;2022-09-09T08:27:02;4.05;;;3.63;;
14256;SDS011;7212;53.254;6.456;2022-09-09T08:29:27;3.30;;;3.00;;
14256;SDS011;7212;53.254;6.456;2022-09-09T08:31:56;3.38;;;3.08;;
14256;SDS011;7212;53.254;6.456;2022-09-09T08:34:23;3.35;;;3.08;;
14256;SDS011;7212;53.254;6.456;2022-09-09T08:36:51;3.45;;;3.15;;
14256;SDS011;7212;53.254;6.456;2022-09-09T08:39:18;3.45;;;3.15;;
14256;SDS011;7212;53.254;6.456;2022-09-09T08:49:55;3.47;;;3.08;;
14256;SDS011;7212;53.254;6.456;2022-09-09T08:52:48;3.00;;;2.70;;
14256;SDS011;7212;53.254;6.456;2022-09-09T08:58:16;2.95;;;2.75;;
14256;SDS011;7212;53.254;6.456;2022-09-09T09:12:14;3.33;;;2.60;;
14256;SDS011;7212;53.254;6.456;2022-09-09T09:14:46;3.13;;;2.83;;
14256;SDS011;7212;53.254;6.456;2022-09-09T09:17:14;3.65;;;2.85;;
14256;SDS011;7212;53.254;6.456;2022-09-09T09:19:45;3.28;;;2.97;;
14256;SDS011;7212;53.254;6.456;2022-09-09T09:22:30;2.90;;;2.70;;
14256;SDS011;7212;53.254;6.456;2022-09-09T09:30:34;2.88;;;2.58;;
14256;SDS011;7212;53.254;6.456;2022-09-09T09:33:20;3.85;;;2.80;;
14256;SDS011;7212;53.254;6.456;2022-09-09T09:36:06;4.28;;;2.70;;
14256;SDS011;7212;53.254;6.456;2022-09-09T09:38:35;4.68;;;3.10;;
14256;SDS011;7212;53.254;6.456;2022-09-09T09:41:02;3.17;;;2.85;;
14256;SDS011;7212;53.254;6.456;2022-09-09T09:43:29;3.00;;;2.70;;
14256;SDS011;7212;53.254;6.456;2022-09-09T09:45:56;3.10;;;2.50;;
14256;SDS011;7212;53.254;6.456;2022-09-09T09:48:23;2.83;;;2.50;;
14256;SDS011;7212;53.254;6.456;2022-09-09T09:50:53;3.60;;;2.50;;
14256;SDS011;7212;53.254;6.456;2022-09-09T09:53:26;3.65;;;2.60;;
14256;SDS011;7212;53.254;6.456;2022-09-09T09:55:55;2.83;;;2.53;;
14256;SDS011;7212;53.254;6.456;2022-09-09T10:01:29;3.75;;;2.35;;
14256;SDS011;7212;53.254;6.456;2022-09-09T10:04:17;2.50;;;2.10;;
14256;SDS011;7212;53.254;6.456;2022-09-09T10:06:46;3.05;;;2.10;;
14256;SDS011;7212;53.254;6.456;2022-09-09T10:09:32;4.00;;;2.35;;
14256;SDS011;7212;53.254;6.456;2022-09-09T10:12:03;3.08;;;2.20;;
14256;SDS011;7212;53.254;6.456;2022-09-09T10:17:30;4.90;;;2.40;;
14256;SDS011;7212;53.254;6.456;2022-09-09T10:23:18;3.75;;;2.08;;
14256;SDS011;7212;53.254;6.456;2022-09-09T10:28:30;2.70;;;1.92;;
14256;SDS011;7212;53.254;6.456;2022-09-09T10:33:38;3.28;;;2.58;;
14256;SDS011;7212;53.254;6.456;2022-09-09T10:36:25;2.85;;;1.98;;
14256;SDS011;7212;53.254;6.456;2022-09-09T10:39:14;3.25;;;1.73;;
14256;SDS011;7212;53.254;6.456;2022-09-09T10:45:17;3.65;;;1.80;;
14256;SDS011;7212;53.254;6.456;2022-09-09T10:48:00;4.03;;;1.90;;
14256;SDS011;7212;53.254;6.456;2022-09-09T10:50:58;2.95;;;1.92;;
14256;SDS011;7212;53.254;6.456;2022-09-09T10:56:22;2.35;;;1.80;;
14256;SDS011;7212;53.254;6.456;2022-09-09T11:01:36;3.08;;;1.90;;
14256;SDS011;7212;53.254;6.456;2022-09-09T11:06:50;2.95;;;1.60;;
14256;SDS011;7212;53.254;6.456;2022-09-09T11:09:21;3.28;;;1.80;;
14256;SDS011;7212;53.254;6.456;2022-09-09T11:11:53;3.60;;;1.90;;
14256;SDS011;7212;53.254;6.456;2022-09-09T11:17:05;4.38;;;1.75;;
14256;SDS011;7212;53.254;6.456;2022-09-09T11:19:40;3.42;;;1.50;;
14256;SDS011;7212;53.254;6.456;2022-09-09T11:25:21;2.63;;;1.73;;
14256;SDS011;7212;53.254;6.456;2022-09-09T11:36:35;3.05;;;1.50;;
14256;SDS011;7212;53.254;6.456;2022-09-09T11:41:48;3.17;;;1.60;;
14256;SDS011;7212;53.254;6.456;2022-09-09T11:44:19;5.22;;;1.83;;
14256;SDS011;7212;53.254;6.456;2022-09-09T11:46:53;2.47;;;1.58;;
14256;SDS011;7212;53.254;6.456;2022-09-09T11:49:28;2.75;;;1.45;;
14256;SDS011;7212;53.254;6.456;2022-09-09T11:52:13;2.47;;;1.50;;
14256;SDS011;7212;53.254;6.456;2022-09-09T11:54:50;3.55;;;1.55;;
14256;SDS011;7212;53.254;6.456;2022-09-09T11:57:26;3.45;;;1.25;;
14256;SDS011;7212;53.254;6.456;2022-09-09T11:59:58;2.80;;;1.30;;
14256;SDS011;7212;53.254;6.456;2022-09-09T12:02:25;3.05;;;1.58;;
14256;SDS011;7212;53.254;6.456;2022-09-09T12:04:56;2.70;;;1.40;;
14256;SDS011;7212;53.254;6.456;2022-09-09T12:12:36;4.00;;;1.60;;
14256;SDS011;7212;53.254;6.456;2022-09-09T12:17:45;2.97;;;1.30;;
14256;SDS011;7212;53.254;6.456;2022-09-09T12:28:25;2.20;;;1.33;;
14256;SDS011;7212;53.254;6.456;2022-09-09T12:31:06;4.88;;;1.65;;
14256;SDS011;7212;53.254;6.456;2022-09-09T12:33:44;1.92;;;1.35;;
14256;SDS011;7212;53.254;6.456;2022-09-09T12:36:16;3.10;;;1.55;;
14256;SDS011;7212;53.254;6.456;2022-09-09T12:38:44;2.50;;;1.58;;
14256;SDS011;7212;53.254;6.456;2022-09-09T12:41:24;3.25;;;1.70;;
14256;SDS011;7212;53.254;6.456;2022-09-09T12:43:51;2.15;;;1.33;;
14256;SDS011;7212;53.254;6.456;2022-09-09T12:49:24;1.73;;;1.20;;
14256;SDS011;7212;53.254;6.456;2022-09-09T12:51:54;1.70;;;1.20;;
14256;SDS011;7212;53.254;6.456;2022-09-09T12:54:22;3.38;;;1.65;;
14256;SDS011;7212;53.254;6.456;2022-09-09T12:56:48;3.58;;;1.83;;
14256;SDS011;7212;53.254;6.456;2022-09-09T12:59:25;2.90;;;1.40;;
14256;SDS011;7212;53.254;6.456;2022-09-09T13:02:20;3.30;;;1.50;;
14256;SDS011;7212;53.254;6.456;2022-09-09T13:04:53;2.95;;;1.40;;
14256;SDS011;7212;53.254;6.456;2022-09-09T13:07:20;2.75;;;1.17;;
14256;SDS011;7212;53.254;6.456;2022-09-09T13:09:47;3.92;;;1.55;;
14256;SDS011;7212;53.254;6.456;2022-09-09T13:12:21;2.13;;;1.52;;
14256;SDS011;7212;53.254;6.456;2022-09-09T13:14:53;2.78;;;1.42;;
14256;SDS011;7212;53.254;6.456;2022-09-09T13:17:25;2.92;;;1.45;;
14256;SDS011;7212;53.254;6.456;2022-09-09T13:19:55;2.85;;;1.45;;
14256;SDS011;7212;53.254;6.456;2022-09-09T13:22:28;2.22;;;1.30;;
14256;SDS011;7212;53.254;6.456;2022-09-09T13:24:58;3.20;;;1.75;;
14256;SDS011;7212;53.254;6.456;2022-09-09T13:27:34;2.65;;;1.40;;
14256;SDS011;7212;53.254;6.456;2022-09-09T13:30:19;2.83;;;1.40;;
14256;SDS011;7212;53.254;6.456;2022-09-09T13:32:47;2.35;;;1.02;;
14256;SDS011;7212;53.254;6.456;2022-09-09T13:35:26;1.98;;;1.30;;
14256;SDS011;7212;53.254;6.456;2022-09-09T13:37:51;1.70;;;1.02;;
14256;SDS011;7212;53.254;6.456;2022-09-09T13:40:18;1.77;;;1.10;;
14256;SDS011;7212;53.254;6.456;2022-09-09T13:42:46;2.47;;;1.25;;
14256;SDS011;7212;53.254;6.456;2022-09-09T13:45:17;2.45;;;1.30;;
14256;SDS011;7212;53.254;6.456;2022-09-09T13:47:45;2.08;;;1.30;;
14256;SDS011;7212;53.254;6.456;2022-09-09T13:50:26;2.42;;;1.10;;
14256;SDS011;7212;53.254;6.456;2022-09-09T13:52:56;2.72;;;1.20;;
14256;SDS011;7212;53.254;6.456;2022-09-09T13:55:24;3.20;;;1.15;;
14256;SDS011;7212;53.254;6.456;2022-09-09T13:58:01;1.42;;;1.00;;
14256;SDS011;7212;53.254;6.456;2022-09-09T14:00:32;1.30;;;1.10;;
14256;SDS011;7212;53.254;6.456;2022-09-09T14:02:59;1.40;;;1.20;;
14256;SDS011;7212;53.254;6.456;2022-09-09T14:05:29;1.95;;;1.10;;
14256;SDS011;7212;53.254;6.456;2022-09-09T14:07:57;2.33;;;1.30;;
14256;SDS011;7212;53.254;6.456;2022-09-09T14:10:23;2.47;;;1.45;;
14256;SDS011;7212;53.254;6.456;2022-09-09T14:12:48;1.88;;;1.08;;
14256;SDS011;7212;53.254;6.456;2022-09-09T14:15:14;2.50;;;1.23;;
14256;SDS011;7212;53.254;6.456;2022-09-09T14:17:41;5.05;;;1.35;;
14256;SDS011;7212;53.254;6.456;2022-09-09T14:20:07;2.08;;;1.05;;
14256;SDS011;7212;53.254;6.456;2022-09-09T14:22:34;2.95;;;1.27;;
14256;SDS011;7212;53.254;6.456;2022-09-09T14:25:01;2.15;;;1.13;;
14256;SDS011;7212;53.254;6.456;2022-09-09T14:27:27;1.48;;;1.20;;
14256;SDS011;7212;53.254;6.456;2022-09-09T14:29:53;2.38;;;1.08;;
14256;SDS011;7212;53.254;6.456;2022-09-09T14:32:19;3.08;;;1.10;;
14256;SDS011;7212;53.254;6.456;2022-09-09T14:34:46;1.83;;;1.00;;
14256;SDS011;7212;53.254;6.456;2022-09-09T14:37:14;2.05;;;1.00;;
14256;SDS011;7212;53.254;6.456;2022-09-09T14:39:41;2.85;;;1.20;;
14256;SDS011;7212;53.254;6.456;2022-09-09T14:42:09;2.92;;;1.55;;
14256;SDS011;7212;53.254;6.456;2022-09-09T14:44:38;1.60;;;0.98;;
14256;SDS011;7212;53.254;6.456;2022-09-09T14:47:04;1.90;;;1.20;;
14256;SDS011;7212;53.254;6.456;2022-09-09T14:49:30;1.30;;;1.00;;
14256;SDS011;7212;53.254;6.456;2022-09-09T14:51:56;1.80;;;1.20;;
14256;SDS011;7212;53.254;6.456;2022-09-09T14:54:21;2.25;;;1.20;;
14256;SDS011;7212;53.254;6.456;2022-09-09T14:56:48;1.52;;;1.02;;
14256;SDS011;7212;53.254;6.456;2022-09-09T14:59:14;1.67;;;1.10;;
14256;SDS011;7212;53.254;6.456;2022-09-09T15:01:39;1.77;;;1.00;;
14256;SDS011;7212;53.254;6.456;2022-09-09T15:04:06;1.92;;;1.25;;
14256;SDS011;7212;53.254;6.456;2022-09-09T15:06:34;8.27;;;2.05;;
14256;SDS011;7212;53.254;6.456;2022-09-09T15:09:03;3.40;;;1.35;;
14256;SDS011;7212;53.254;6.456;2022-09-09T15:11:32;7.57;;;1.60;;
14256;SDS011;7212;53.254;6.456;2022-09-09T15:14:02;1.85;;;1.35;;
14256;SDS011;7212;53.254;6.456;2022-09-09T15:16:29;4.82;;;1.33;;
14256;SDS011;7212;53.254;6.456;2022-09-09T15:18:57;3.10;;;1.20;;
14256;SDS011;7212;53.254;6.456;2022-09-09T15:21:26;4.05;;;1.48;;
14256;SDS011;7212;53.254;6.456;2022-09-09T15:23:57;3.30;;;1.20;;
14256;SDS011;7212;53.254;6.456;2022-09-09T15:26:24;2.35;;;1.17;;
14256;SDS011;7212;53.254;6.456;2022-09-09T15:28:50;1.90;;;1.10;;
14256;SDS011;7212;53.254;6.456;2022-09-09T15:31:17;4.13;;;1.40;;
14256;SDS011;7212;53.254;6.456;2022-09-09T15:33:57;2.95;;;1.33;;
14256;SDS011;7212;53.254;6.456;2022-09-09T15:36:36;1.35;;;1.10;;
14256;SDS011;7212;53.254;6.456;2022-09-09T15:39:05;2.80;;;1.40;;
14256;SDS011;7212;53.254;6.456;2022-09-09T15:41:32;1.83;;;0.90;;
14256;SDS011;7212;53.254;6.456;2022-09-09T15:43:59;1.20;;;0.95;;
14256;SDS011;7212;53.254;6.456;2022-09-09T15:51:46;1.30;;;0.95;;
14256;SDS011;7212;53.254;6.456;2022-09-09T15:54:28;0.98;;;0.88;;
14256;SDS011;7212;53.254;6.456;2022-09-09T15:56:57;1.02;;;0.93;;
14256;SDS011;7212;53.254;6.456;2022-09-09T15:59:25;1.75;;;1.00;;
14256;SDS011;7212;53.254;6.456;2022-09-09T16:01:52;1.00;;;0.80;;
14256;SDS011;7212;53.254;6.456;2022-09-09T16:04:20;2.00;;;1.10;;
14256;SDS011;7212;53.254;6.456;2022-09-09T16:07:00;1.63;;;0.95;;
14256;SDS011;7212;53.254;6.456;2022-09-09T16:09:28;1.30;;;0.90;;
14256;SDS011;7212;53.254;6.456;2022-09-09T16:11:58;1.85;;;0.95;;
14256;SDS011;7212;53.254;6.456;2022-09-09T16:14:25;3.63;;;0.88;;
14256;SDS011;7212;53.254;6.456;2022-09-09T16:16:51;1.52;;;0.95;;
14256;SDS011;7212;53.254;6.456;2022-09-09T16:19:17;1.23;;;0.90;;
14256;SDS011;7212;53.254;6.456;2022-09-09T16:21:47;1.55;;;0.88;;
14256;SDS011;7212;53.254;6.456;2022-09-09T16:24:16;1.17;;;0.90;;
14256;SDS011;7212;53.254;6.456;2022-09-09T16:26:45;0.85;;;0.80;;
14256;SDS011;7212;53.254;6.456;2022-09-09T16:29:13;1.65;;;0.95;;
14256;SDS011;7212;53.254;6.456;2022-09-09T16:31:40;1.63;;;1.00;;
14256;SDS011;7212;53.254;6.456;2022-09-09T16:34:07;1.98;;;1.00;;
14256;SDS011;7212;53.254;6.456;2022-09-09T16:36:33;1.38;;;1.10;;
14256;SDS011;7212;53.254;6.456;2022-09-09T16:39:02;1.20;;;0.95;;
14256;SDS011;7212;53.254;6.456;2022-09-09T16:41:30;1.67;;;1.15;;
14256;SDS011;7212;53.254;6.456;2022-09-09T16:43:57;1.35;;;0.90;;
14256;SDS011;7212;53.254;6.456;2022-09-09T16:46:24;1.00;;;0.80;;
14256;SDS011;7212;53.254;6.456;2022-09-09T16:48:52;1.23;;;1.00;;
14256;SDS011;7212;53.254;6.456;2022-09-09T16:51:24;1.33;;;0.80;;
14256;SDS011;7212;53.254;6.456;2022-09-09T16:53:52;0.90;;;0.80;;
14256;SDS011;7212;53.254;6.456;2022-09-09T16:56:19;1.33;;;0.90;;
14256;SDS011;7212;53.254;6.456;2022-09-09T16:58:51;1.75;;;0.90;;
14256;SDS011;7212;53.254;6.456;2022-09-09T17:01:21;1.45;;;1.00;;
14256;SDS011;7212;53.254;6.456;2022-09-09T17:03:54;1.10;;;0.90;;
14256;SDS011;7212;53.254;6.456;2022-09-09T17:06:20;1.33;;;1.08;;
14256;SDS011;7212;53.254;6.456;2022-09-09T17:08:47;1.13;;;0.93;;
14256;SDS011;7212;53.254;6.456;2022-09-09T17:11:17;1.90;;;1.10;;
14256;SDS011;7212;53.254;6.456;2022-09-09T17:13:44;1.23;;;0.98;;
14256;SDS011;7212;53.254;6.456;2022-09-09T17:16:11;1.10;;;1.00;;
14256;SDS011;7212;53.254;6.456;2022-09-09T17:18:38;1.30;;;0.82;;
14256;SDS011;7212;53.254;6.456;2022-09-09T17:21:05;1.85;;;0.90;;
14256;SDS011;7212;53.254;6.456;2022-09-09T17:23:34;1.20;;;1.10;;
14256;SDS011;7212;53.254;6.456;2022-09-09T17:26:03;1.50;;;1.25;;
14256;SDS011;7212;53.254;6.456;2022-09-09T17:28:30;1.35;;;0.90;;
14256;SDS011;7212;53.254;6.456;2022-09-09T17:31:00;2.55;;;1.02;;
14256;SDS011;7212;53.254;6.456;2022-09-09T17:33:28;1.45;;;1.00;;
14256;SDS011;7212;53.254;6.456;2022-09-09T17:35:58;1.10;;;0.90;;
14256;SDS011;7212;53.254;6.456;2022-09-09T17:38:31;1.25;;;0.98;;
14256;SDS011;7212;53.254;6.456;2022-09-09T17:43:59;1.15;;;0.90;;
14256;SDS011;7212;53.254;6.456;2022-09-09T17:46:36;1.67;;;1.00;;